Terminal Aerodrome Forecast
Issued by NWS

Home | Current Version | Previous Version | Text Only | Print | Product List | Glossary On
Versions: 1 2 3 4 5 6 7 8 9 10 11 12 13 14 15 16 17
196
FTUS44 KEWX 232325
TAFSSF
TAF
KSSF 232325Z 2400/2424 13010KT P6SM FEW250
     FM240700 14006KT P6SM BKN012
     FM241700 12005KT P6SM BKN030
     FM242000 07007KT P6SM VCSH BKN050=

USA.gov is the U.S. government's official web portal to all federal, state and local government web resources and services.